createdAt,value
2023-01-18T05:45:59.550Z,5.10
2023-01-18T05:51:07.797Z,5.87
2023-01-18T05:56:10.169Z,6.30
2023-01-18T06:01:12.393Z,4.53
2023-01-18T06:06:16.455Z,3.50
2023-01-18T06:11:18.540Z,1.80
2023-01-18T06:16:20.645Z,1.40
2023-01-18T06:21:22.824Z,1.02
2023-01-18T06:26:25.058Z,1.10
2023-01-18T06:31:27.161Z,1.23
2023-01-18T06:36:29.928Z,1.20
2023-01-18T06:41:32.150Z,1.27
2023-01-18T06:46:34.341Z,1.60
2023-01-18T06:51:36.500Z,2.20
2023-01-18T06:56:38.584Z,1.75
2023-01-18T07:01:40.745Z,2.47
2023-01-18T07:06:42.864Z,2.20
2023-01-18T07:11:45.839Z,2.05
2023-01-18T07:16:47.963Z,1.55
2023-01-18T07:21:51.526Z,1.60
2023-01-18T07:26:54.093Z,1.60
2023-01-18T07:31:56.280Z,1.20
2023-01-18T07:36:58.418Z,1.07
2023-01-18T07:42:00.449Z,0.88
2023-01-18T07:47:02.570Z,0.85
2023-01-18T07:52:04.929Z,0.90
2023-01-18T07:57:07.013Z,0.90
2023-01-18T08:02:12.457Z,1.20
2023-01-18T08:07:14.602Z,0.80
2023-01-18T08:12:18.593Z,0.80
2023-01-18T08:17:20.709Z,0.90
2023-01-18T08:22:22.808Z,0.90
2023-01-18T08:27:27.149Z,0.90
2023-01-18T08:32:29.830Z,0.62
2023-01-18T08:37:32.793Z,0.70
2023-01-18T08:42:34.873Z,0.70
2023-01-18T08:47:37.108Z,0.60
2023-01-18T08:52:39.198Z,0.90
2023-01-18T08:57:41.216Z,0.57
2023-01-18T09:02:43.344Z,0.60
2023-01-18T09:07:46.039Z,0.60
2023-01-18T09:12:48.454Z,0.80
2023-01-18T09:17:50.559Z,0.53
2023-01-18T09:22:52.676Z,0.50
2023-01-18T09:27:55.092Z,0.60
2023-01-18T09:32:58.431Z,0.60
2023-01-18T09:38:00.899Z,0.80
2023-01-18T09:43:03.367Z,0.60
2023-01-18T09:48:12.028Z,0.60
2023-01-18T09:53:21.100Z,0.50
2023-01-18T09:58:32.177Z,0.50
2023-01-18T10:03:46.505Z,0.40
2023-01-18T10:08:57.145Z,0.60
2023-01-18T10:14:13.897Z,0.52
2023-01-18T10:19:28.462Z,0.70
2023-01-18T10:24:44.204Z,0.60
2023-01-18T10:30:11.174Z,0.60
2023-01-18T10:35:29.136Z,0.60
2023-01-18T10:40:31.208Z,0.70
2023-01-18T10:45:35.179Z,0.70
2023-01-18T10:50:40.052Z,0.70
2023-01-18T10:55:55.684Z,0.70
2023-01-18T11:01:00.733Z,0.97
2023-01-18T11:06:06.916Z,0.88
2023-01-18T11:11:50.137Z,1.10
2023-01-18T11:17:18.097Z,1.40
2023-01-18T11:22:20.332Z,1.47
2023-01-18T11:27:24.921Z,1.60
2023-01-18T11:32:30.363Z,1.55
2023-01-18T11:37:36.708Z,1.80
2023-01-18T11:42:40.992Z,1.87
2023-01-18T11:47:55.495Z,1.33
2023-01-18T11:53:09.532Z,1.40
2023-01-18T11:58:22.647Z,1.27
2023-01-18T12:03:40.170Z,1.52
2023-01-18T12:08:54.176Z,1.63
2023-01-18T12:14:16.130Z,1.17
2023-01-18T12:19:36.152Z,1.23
2023-01-18T12:24:45.989Z,1.50
2023-01-18T12:30:15.562Z,1.40
2023-01-18T12:35:37.094Z,1.30
2023-01-18T12:41:14.736Z,1.60
2023-01-18T12:46:46.872Z,1.00
2023-01-18T12:52:12.780Z,1.48
2023-01-18T12:57:21.128Z,1.20
2023-01-18T13:02:33.400Z,1.07
2023-01-18T13:07:42.321Z,0.97
2023-01-18T13:12:45.064Z,0.90
2023-01-18T13:18:06.537Z,1.10
2023-01-18T13:23:30.874Z,1.00
2023-01-18T13:28:33.635Z,1.20
2023-01-18T13:33:40.508Z,1.12
2023-01-18T13:39:01.295Z,1.33
2023-01-18T13:44:05.849Z,2.10
2023-01-18T13:49:38.628Z,2.08
2023-01-18T13:54:58.965Z,2.37
2023-01-18T14:00:02.448Z,1.70
2023-01-18T14:05:07.855Z,3.03
2023-01-18T14:10:25.403Z,2.85
2023-01-18T14:15:44.123Z,2.00
2023-01-18T14:20:57.996Z,4.07
2023-01-18T14:26:07.008Z,3.03
2023-01-18T14:31:23.073Z,2.40
2023-01-18T14:36:28.335Z,2.30
2023-01-18T14:41:31.402Z,3.30
2023-01-18T14:46:33.634Z,3.80
2023-01-18T14:51:35.732Z,3.40
2023-01-18T14:56:42.915Z,4.68
2023-01-18T15:01:54.293Z,4.55
2023-01-18T15:07:06.964Z,6.00
2023-01-18T15:12:15.510Z,5.87
2023-01-18T15:17:22.524Z,5.20
2023-01-18T15:22:31.036Z,3.80
2023-01-18T15:27:33.524Z,3.72
2023-01-18T15:32:36.585Z,3.65
2023-01-18T15:37:39.087Z,3.53
2023-01-18T15:42:48.264Z,3.47
2023-01-18T15:47:53.623Z,4.20
2023-01-18T15:53:11.531Z,31.17
2023-01-18T15:58:19.675Z,7.60
2023-01-18T16:03:25.643Z,6.93
2023-01-18T16:08:27.937Z,5.65
2023-01-18T16:13:34.871Z,5.27
2023-01-18T16:18:37.032Z,8.25
2023-01-18T16:23:44.222Z,5.53
2023-01-18T17:09:28.068Z,8.03
2023-01-18T17:14:32.709Z,8.88
2023-01-18T17:19:36.472Z,8.40
2023-01-18T17:24:38.521Z,9.07
2023-01-18T17:29:40.728Z,10.50
2023-01-18T17:34:42.813Z,10.18
2023-01-18T17:40:02.554Z,10.85
2023-01-18T17:45:09.929Z,10.43
2023-01-18T17:50:17.258Z,10.55
2023-01-18T17:55:27.268Z,11.20
2023-01-18T18:00:33.032Z,11.10
2023-01-18T18:05:35.138Z,11.20
2023-01-18T18:10:37.222Z,11.98
2023-01-18T18:15:45.829Z,15.93
2023-01-18T18:20:48.232Z,11.97
2023-01-18T18:25:50.411Z,12.32
2023-01-18T18:30:52.567Z,11.07
2023-01-18T18:35:54.953Z,11.37
2023-01-18T18:41:03.113Z,12.45
2023-01-18T18:46:05.348Z,11.95
2023-01-18T18:51:07.423Z,12.40
2023-01-18T18:56:10.394Z,11.70
2023-01-18T19:01:22.474Z,12.35
2023-01-18T19:06:26.271Z,10.47
2023-01-18T19:11:28.394Z,10.17
2023-01-18T19:16:30.514Z,9.93
2023-01-18T19:21:39.840Z,9.23
2023-01-18T19:26:42.059Z,8.90
2023-01-18T19:31:44.287Z,8.18
2023-01-18T19:36:46.390Z,7.68
2023-01-18T19:41:49.840Z,7.30
2023-01-18T19:46:52.949Z,7.57
2023-01-18T19:51:55.769Z,8.05
2023-01-18T19:56:57.925Z,7.77
2023-01-18T20:02:00.251Z,8.17
2023-01-18T20:07:02.425Z,7.47
2023-01-18T20:12:04.846Z,7.82
2023-01-18T20:17:07.032Z,8.77
2023-01-18T20:22:09.094Z,7.62
2023-01-18T20:27:16.243Z,8.38
2023-01-18T20:32:18.899Z,7.90
2023-01-18T20:37:21.238Z,8.70
2023-01-18T20:42:23.317Z,8.85
2023-01-18T20:47:25.351Z,8.30
2023-01-18T20:52:27.422Z,8.07
2023-01-18T20:57:31.191Z,8.68
2023-01-18T21:02:33.330Z,8.55
2023-01-18T21:07:36.169Z,8.30
2023-01-18T21:12:38.288Z,11.40
2023-01-18T21:17:40.360Z,12.05
